sensor_id;sensor_type;location;lat;lon;timestamp;temperature;humidity
36206;DHT22;22242;48.796;9.930;2022-09-09T00:01:47;15.50;99.90
36206;DHT22;22242;48.796;9.930;2022-09-09T00:04:25;15.40;99.90
36206;DHT22;22242;48.796;9.930;2022-09-09T00:06:59;15.40;99.90
36206;DHT22;22242;48.796;9.930;2022-09-09T00:09:29;15.40;99.90
36206;DHT22;22242;48.796;9.930;2022-09-09T00:12:02;15.20;99.90
36206;DHT22;22242;48.796;9.930;2022-09-09T00:14:37;15.10;99.90
36206;DHT22;22242;48.796;9.930;2022-09-09T00:17:11;15.10;99.90
36206;DHT22;22242;48.796;9.930;2022-09-09T00:19:41;15.30;99.90
36206;DHT22;22242;48.796;9.930;2022-09-09T00:22:16;15.50;99.90
36206;DHT22;22242;48.796;9.930;2022-09-09T00:24:45;15.50;99.90
36206;DHT22;22242;48.796;9.930;2022-09-09T00:27:18;15.40;99.90
36206;DHT22;22242;48.796;9.930;2022-09-09T00:29:51;15.50;99.90
36206;DHT22;22242;48.796;9.930;2022-09-09T00:32:20;15.70;99.90
36206;DHT22;22242;48.796;9.930;2022-09-09T00:34:51;15.70;99.90
36206;DHT22;22242;48.796;9.930;2022-09-09T00:37:19;15.60;99.90
36206;DHT22;22242;48.796;9.930;2022-09-09T00:39:47;15.50;99.90
36206;DHT22;22242;48.796;9.930;2022-09-09T00:42:20;15.30;99.90
36206;DHT22;22242;48.796;9.930;2022-09-09T00:44:55;15.30;99.90
36206;DHT22;22242;48.796;9.930;2022-09-09T00:47:40;15.50;99.90
36206;DHT22;22242;48.796;9.930;2022-09-09T00:50:22;15.60;99.90
36206;DHT22;22242;48.796;9.930;2022-09-09T00:52:56;15.80;99.90
36206;DHT22;22242;48.796;9.930;2022-09-09T00:55:31;15.90;99.90
36206;DHT22;22242;48.796;9.930;2022-09-09T00:58:00;15.80;99.90
36206;DHT22;22242;48.796;9.930;2022-09-09T01:00:30;15.60;99.90
36206;DHT22;22242;48.796;9.930;2022-09-09T01:03:19;15.60;99.90
36206;DHT22;22242;48.796;9.930;2022-09-09T01:05:54;15.60;99.90
36206;DHT22;22242;48.796;9.930;2022-09-09T01:11:22;15.60;99.90
36206;DHT22;22242;48.796;9.930;2022-09-09T01:13:56;15.70;99.90
36206;DHT22;22242;48.796;9.930;2022-09-09T01:16:29;15.70;99.90
36206;DHT22;22242;48.796;9.930;2022-09-09T01:18:57;15.70;99.90
36206;DHT22;22242;48.796;9.930;2022-09-09T01:21:37;15.80;99.90
36206;DHT22;22242;48.796;9.930;2022-09-09T01:24:19;16.10;99.90
36206;DHT22;22242;48.796;9.930;2022-09-09T01:27:12;16.10;99.90
36206;DHT22;22242;48.796;9.930;2022-09-09T01:29:40;15.90;99.90
36206;DHT22;22242;48.796;9.930;2022-09-09T01:32:39;15.90;99.90
36206;DHT22;22242;48.796;9.930;2022-09-09T01:35:11;16.00;99.90
36206;DHT22;22242;48.796;9.930;2022-09-09T01:37:39;16.00;99.90
36206;DHT22;22242;48.796;9.930;2022-09-09T01:40:07;16.10;99.90
36206;DHT22;22242;48.796;9.930;2022-09-09T01:42:36;16.10;99.90
36206;DHT22;22242;48.796;9.930;2022-09-09T01:45:05;16.20;99.90
36206;DHT22;22242;48.796;9.930;2022-09-09T01:47:32;16.10;99.90
36206;DHT22;22242;48.796;9.930;2022-09-09T01:50:07;16.00;99.90
36206;DHT22;22242;48.796;9.930;2022-09-09T01:52:36;16.00;99.90
36206;DHT22;22242;48.796;9.930;2022-09-09T01:55:06;15.70;99.90
36206;DHT22;22242;48.796;9.930;2022-09-09T01:57:43;15.60;99.90
36206;DHT22;22242;48.796;9.930;2022-09-09T02:00:13;15.40;99.90
36206;DHT22;22242;48.796;9.930;2022-09-09T02:02:48;15.30;99.90
36206;DHT22;22242;48.796;9.930;2022-09-09T02:05:31;15.10;99.90
36206;DHT22;22242;48.796;9.930;2022-09-09T02:08:06;14.90;99.90
36206;DHT22;22242;48.796;9.930;2022-09-09T02:10:52;14.80;99.90
36206;DHT22;22242;48.796;9.930;2022-09-09T02:13:36;14.70;99.90
36206;DHT22;22242;48.796;9.930;2022-09-09T02:16:08;14.60;99.90
36206;DHT22;22242;48.796;9.930;2022-09-09T02:18:44;14.60;99.90
36206;DHT22;22242;48.796;9.930;2022-09-09T02:21:14;14.50;99.90
36206;DHT22;22242;48.796;9.930;2022-09-09T02:23:42;14.40;99.90
36206;DHT22;22242;48.796;9.930;2022-09-09T02:26:13;14.20;99.90
36206;DHT22;22242;48.796;9.930;2022-09-09T02:28:55;14.10;99.90
36206;DHT22;22242;48.796;9.930;2022-09-09T02:31:25;14.10;99.90
36206;DHT22;22242;48.796;9.930;2022-09-09T02:34:00;14.10;99.90
36206;DHT22;22242;48.796;9.930;2022-09-09T02:36:31;14.10;99.90
36206;DHT22;22242;48.796;9.930;2022-09-09T02:39:00;13.90;99.90
36206;DHT22;22242;48.796;9.930;2022-09-09T02:41:33;13.90;99.90
36206;DHT22;22242;48.796;9.930;2022-09-09T02:44:05;13.90;99.90
36206;DHT22;22242;48.796;9.930;2022-09-09T02:46:41;13.80;99.90
36206;DHT22;22242;48.796;9.930;2022-09-09T02:49:17;13.70;99.90
36206;DHT22;22242;48.796;9.930;2022-09-09T02:51:53;13.70;99.90
36206;DHT22;22242;48.796;9.930;2022-09-09T02:54:26;13.60;99.90
36206;DHT22;22242;48.796;9.930;2022-09-09T02:56:54;13.50;99.90
36206;DHT22;22242;48.796;9.930;2022-09-09T02:59:30;13.50;99.90
36206;DHT22;22242;48.796;9.930;2022-09-09T03:01:58;13.50;99.90
36206;DHT22;22242;48.796;9.930;2022-09-09T03:04:24;13.50;99.90
36206;DHT22;22242;48.796;9.930;2022-09-09T03:06:51;13.50;99.90
36206;DHT22;22242;48.796;9.930;2022-09-09T03:09:20;13.40;99.90
36206;DHT22;22242;48.796;9.930;2022-09-09T03:11:48;13.50;99.90
36206;DHT22;22242;48.796;9.930;2022-09-09T03:14:16;13.40;99.90
36206;DHT22;22242;48.796;9.930;2022-09-09T03:16:48;13.30;99.90
36206;DHT22;22242;48.796;9.930;2022-09-09T03:19:15;13.20;99.90
36206;DHT22;22242;48.796;9.930;2022-09-09T03:21:42;13.40;99.90
36206;DHT22;22242;48.796;9.930;2022-09-09T03:24:08;13.40;99.90
36206;DHT22;22242;48.796;9.930;2022-09-09T03:26:35;13.50;99.90
36206;DHT22;22242;48.796;9.930;2022-09-09T03:29:03;13.50;99.90
36206;DHT22;22242;48.796;9.930;2022-09-09T03:31:32;13.40;99.90
36206;DHT22;22242;48.796;9.930;2022-09-09T03:34:00;13.40;99.90
36206;DHT22;22242;48.796;9.930;2022-09-09T03:36:31;13.40;99.90
36206;DHT22;22242;48.796;9.930;2022-09-09T03:38:58;13.30;99.90
36206;DHT22;22242;48.796;9.930;2022-09-09T03:41:29;13.30;99.90
36206;DHT22;22242;48.796;9.930;2022-09-09T03:43:56;13.30;99.90
36206;DHT22;22242;48.796;9.930;2022-09-09T03:46:26;13.30;99.90
36206;DHT22;22242;48.796;9.930;2022-09-09T03:48:53;13.30;99.90
36206;DHT22;22242;48.796;9.930;2022-09-09T03:51:21;13.30;99.90
36206;DHT22;22242;48.796;9.930;2022-09-09T03:53:48;13.30;99.90
36206;DHT22;22242;48.796;9.930;2022-09-09T03:56:15;13.30;99.90
36206;DHT22;22242;48.796;9.930;2022-09-09T03:58:42;13.30;99.90
36206;DHT22;22242;48.796;9.930;2022-09-09T04:01:12;13.30;99.90
36206;DHT22;22242;48.796;9.930;2022-09-09T04:03:41;13.30;99.90
36206;DHT22;22242;48.796;9.930;2022-09-09T04:06:09;13.40;99.90
36206;DHT22;22242;48.796;9.930;2022-09-09T04:08:39;13.60;99.90
36206;DHT22;22242;48.796;9.930;2022-09-09T04:11:07;13.70;99.90
36206;DHT22;22242;48.796;9.930;2022-09-09T04:13:38;13.80;99.90
36206;DHT22;22242;48.796;9.930;2022-09-09T04:16:09;13.70;99.90
36206;DHT22;22242;48.796;9.930;2022-09-09T04:18:37;13.60;99.90
36206;DHT22;22242;48.796;9.930;2022-09-09T04:21:04;13.80;99.90
36206;DHT22;22242;48.796;9.930;2022-09-09T04:23:32;13.80;99.90
36206;DHT22;22242;48.796;9.930;2022-09-09T04:26:02;13.90;99.90
36206;DHT22;22242;48.796;9.930;2022-09-09T04:28:33;13.90;99.90
36206;DHT22;22242;48.796;9.930;2022-09-09T04:31:05;14.10;99.90
36206;DHT22;22242;48.796;9.930;2022-09-09T04:33:32;14.10;99.90
36206;DHT22;22242;48.796;9.930;2022-09-09T04:36:00;14.20;99.90
36206;DHT22;22242;48.796;9.930;2022-09-09T04:38:28;14.10;99.90
36206;DHT22;22242;48.796;9.930;2022-09-09T04:40:55;14.20;99.90
36206;DHT22;22242;48.796;9.930;2022-09-09T04:43:24;14.40;99.90
36206;DHT22;22242;48.796;9.930;2022-09-09T04:45:53;14.60;99.90
36206;DHT22;22242;48.796;9.930;2022-09-09T04:48:23;14.70;99.90
36206;DHT22;22242;48.796;9.930;2022-09-09T04:50:55;14.90;99.90
36206;DHT22;22242;48.796;9.930;2022-09-09T04:53:23;15.00;99.90
36206;DHT22;22242;48.796;9.930;2022-09-09T04:55:52;15.00;99.90
36206;DHT22;22242;48.796;9.930;2022-09-09T04:58:19;15.00;99.90
36206;DHT22;22242;48.796;9.930;2022-09-09T05:00:50;14.90;99.90
36206;DHT22;22242;48.796;9.930;2022-09-09T05:03:18;14.80;99.90
36206;DHT22;22242;48.796;9.930;2022-09-09T05:05:46;14.70;99.90
36206;DHT22;22242;48.796;9.930;2022-09-09T05:08:14;14.50;99.90
36206;DHT22;22242;48.796;9.930;2022-09-09T05:10:41;14.40;99.90
36206;DHT22;22242;48.796;9.930;2022-09-09T05:13:08;14.30;99.90
36206;DHT22;22242;48.796;9.930;2022-09-09T05:15:37;14.20;99.90
36206;DHT22;22242;48.796;9.930;2022-09-09T05:18:05;14.20;99.90
36206;DHT22;22242;48.796;9.930;2022-09-09T05:20:32;14.20;99.90
36206;DHT22;22242;48.796;9.930;2022-09-09T05:23:00;14.20;99.90
36206;DHT22;22242;48.796;9.930;2022-09-09T05:25:30;14.30;99.90
36206;DHT22;22242;48.796;9.930;2022-09-09T05:27:58;14.30;99.90
36206;DHT22;22242;48.796;9.930;2022-09-09T05:30:25;14.20;99.90
36206;DHT22;22242;48.796;9.930;2022-09-09T05:32:55;14.50;99.90
36206;DHT22;22242;48.796;9.930;2022-09-09T05:35:24;14.70;99.90
36206;DHT22;22242;48.796;9.930;2022-09-09T05:37:51;14.90;99.90
36206;DHT22;22242;48.796;9.930;2022-09-09T05:40:18;15.30;99.90
36206;DHT22;22242;48.796;9.930;2022-09-09T05:42:47;15.60;99.90
36206;DHT22;22242;48.796;9.930;2022-09-09T05:45:14;15.70;99.90
36206;DHT22;22242;48.796;9.930;2022-09-09T05:47:41;15.80;99.90
36206;DHT22;22242;48.796;9.930;2022-09-09T05:50:11;15.90;99.90
36206;DHT22;22242;48.796;9.930;2022-09-09T05:52:40;16.00;99.90
36206;DHT22;22242;48.796;9.930;2022-09-09T05:55:08;15.90;99.90
36206;DHT22;22242;48.796;9.930;2022-09-09T05:57:35;16.00;99.90
36206;DHT22;22242;48.796;9.930;2022-09-09T06:00:03;16.20;99.90
36206;DHT22;22242;48.796;9.930;2022-09-09T06:02:39;16.30;99.90
36206;DHT22;22242;48.796;9.930;2022-09-09T06:05:08;16.30;99.90
36206;DHT22;22242;48.796;9.930;2022-09-09T06:07:36;16.50;99.90
36206;DHT22;22242;48.796;9.930;2022-09-09T06:10:10;16.50;99.90
36206;DHT22;22242;48.796;9.930;2022-09-09T06:12:39;16.20;99.90
36206;DHT22;22242;48.796;9.930;2022-09-09T06:15:07;15.70;99.90
36206;DHT22;22242;48.796;9.930;2022-09-09T06:17:34;15.30;99.90
36206;DHT22;22242;48.796;9.930;2022-09-09T06:20:02;15.30;99.90
36206;DHT22;22242;48.796;9.930;2022-09-09T06:22:31;15.10;99.90
36206;DHT22;22242;48.796;9.930;2022-09-09T06:24:58;15.00;99.90
36206;DHT22;22242;48.796;9.930;2022-09-09T06:27:28;15.00;99.90
36206;DHT22;22242;48.796;9.930;2022-09-09T06:29:55;15.10;99.90
36206;DHT22;22242;48.796;9.930;2022-09-09T06:32:22;15.20;99.90
36206;DHT22;22242;48.796;9.930;2022-09-09T06:34:49;15.20;99.90
36206;DHT22;22242;48.796;9.930;2022-09-09T06:37:17;15.20;99.90
36206;DHT22;22242;48.796;9.930;2022-09-09T06:39:48;15.20;99.90
36206;DHT22;22242;48.796;9.930;2022-09-09T06:42:14;15.30;99.90
36206;DHT22;22242;48.796;9.930;2022-09-09T06:44:59;15.50;99.90
36206;DHT22;22242;48.796;9.930;2022-09-09T06:47:34;15.80;99.90
36206;DHT22;22242;48.796;9.930;2022-09-09T06:50:02;16.00;99.90
36206;DHT22;22242;48.796;9.930;2022-09-09T06:52:32;16.40;99.90
36206;DHT22;22242;48.796;9.930;2022-09-09T06:55:00;16.60;99.90
36206;DHT22;22242;48.796;9.930;2022-09-09T06:57:27;16.80;99.90
36206;DHT22;22242;48.796;9.930;2022-09-09T06:59:55;17.20;99.90
36206;DHT22;22242;48.796;9.930;2022-09-09T07:02:23;17.50;99.90
36206;DHT22;22242;48.796;9.930;2022-09-09T07:04:50;17.70;99.90
36206;DHT22;22242;48.796;9.930;2022-09-09T07:07:17;18.00;99.90
36206;DHT22;22242;48.796;9.930;2022-09-09T07:09:44;18.60;99.90
36206;DHT22;22242;48.796;9.930;2022-09-09T07:12:12;19.40;99.90
36206;DHT22;22242;48.796;9.930;2022-09-09T07:14:46;19.60;99.90
36206;DHT22;22242;48.796;9.930;2022-09-09T07:17:12;19.50;99.90
36206;DHT22;22242;48.796;9.930;2022-09-09T07:19:41;19.50;99.90
36206;DHT22;22242;48.796;9.930;2022-09-09T07:22:09;19.60;99.90
36206;DHT22;22242;48.796;9.930;2022-09-09T07:24:36;19.70;99.90
36206;DHT22;22242;48.796;9.930;2022-09-09T07:27:03;19.70;99.90
36206;DHT22;22242;48.796;9.930;2022-09-09T07:29:31;19.50;99.90
36206;DHT22;22242;48.796;9.930;2022-09-09T07:31:58;19.40;99.90
36206;DHT22;22242;48.796;9.930;2022-09-09T07:34:31;19.10;99.90
36206;DHT22;22242;48.796;9.930;2022-09-09T07:36:59;19.00;99.90
36206;DHT22;22242;48.796;9.930;2022-09-09T07:39:27;19.60;99.90
36206;DHT22;22242;48.796;9.930;2022-09-09T07:41:58;19.70;99.90
36206;DHT22;22242;48.796;9.930;2022-09-09T07:44:25;19.70;99.90
36206;DHT22;22242;48.796;9.930;2022-09-09T07:47:09;19.90;99.90
36206;DHT22;22242;48.796;9.930;2022-09-09T07:49:43;19.60;99.90
36206;DHT22;22242;48.796;9.930;2022-09-09T07:52:13;19.80;99.90
36206;DHT22;22242;48.796;9.930;2022-09-09T07:54:42;19.70;99.90
36206;DHT22;22242;48.796;9.930;2022-09-09T07:57:12;19.70;99.90
36206;DHT22;22242;48.796;9.930;2022-09-09T07:59:39;19.80;99.90
36206;DHT22;22242;48.796;9.930;2022-09-09T08:02:09;19.70;99.90
36206;DHT22;22242;48.796;9.930;2022-09-09T08:04:36;20.10;99.90
36206;DHT22;22242;48.796;9.930;2022-09-09T08:07:03;19.90;99.90
36206;DHT22;22242;48.796;9.930;2022-09-09T08:09:38;20.60;99.90
36206;DHT22;22242;48.796;9.930;2022-09-09T08:12:17;20.50;99.90
36206;DHT22;22242;48.796;9.930;2022-09-09T08:14:44;21.10;99.90
36206;DHT22;22242;48.796;9.930;2022-09-09T08:17:11;22.60;99.90
36206;DHT22;22242;48.796;9.930;2022-09-09T08:19:38;23.80;99.90
36206;DHT22;22242;48.796;9.930;2022-09-09T08:22:12;23.20;99.90
36206;DHT22;22242;48.796;9.930;2022-09-09T08:24:41;22.70;99.90
36206;DHT22;22242;48.796;9.930;2022-09-09T08:27:08;22.70;99.90
36206;DHT22;22242;48.796;9.930;2022-09-09T08:29:36;22.90;99.90
36206;DHT22;22242;48.796;9.930;2022-09-09T08:32:04;22.90;99.90
36206;DHT22;22242;48.796;9.930;2022-09-09T08:34:32;23.60;99.90
36206;DHT22;22242;48.796;9.930;2022-09-09T08:37:03;24.60;99.90
36206;DHT22;22242;48.796;9.930;2022-09-09T08:39:36;25.10;99.90
36206;DHT22;22242;48.796;9.930;2022-09-09T08:45:12;24.20;99.90
36206;DHT22;22242;48.796;9.930;2022-09-09T08:47:48;23.90;99.90
36206;DHT22;22242;48.796;9.930;2022-09-09T08:50:23;22.80;99.90
36206;DHT22;22242;48.796;9.930;2022-09-09T08:53:01;23.70;99.90
36206;DHT22;22242;48.796;9.930;2022-09-09T08:55:38;24.90;99.90
36206;DHT22;22242;48.796;9.930;2022-09-09T08:58:13;26.70;98.70
36206;DHT22;22242;48.796;9.930;2022-09-09T09:00:51;25.80;97.40
36206;DHT22;22242;48.796;9.930;2022-09-09T09:03:27;26.20;97.90
36206;DHT22;22242;48.796;9.930;2022-09-09T09:06:03;23.80;99.40
36206;DHT22;22242;48.796;9.930;2022-09-09T09:08:38;21.90;99.90
36206;DHT22;22242;48.796;9.930;2022-09-09T09:11:08;21.80;99.90
36206;DHT22;22242;48.796;9.930;2022-09-09T09:13:40;22.40;99.90
36206;DHT22;22242;48.796;9.930;2022-09-09T09:16:17;23.60;99.90
36206;DHT22;22242;48.796;9.930;2022-09-09T09:18:46;23.20;99.90
36206;DHT22;22242;48.796;9.930;2022-09-09T09:21:16;23.50;99.90
36206;DHT22;22242;48.796;9.930;2022-09-09T09:23:54;24.60;99.90
36206;DHT22;22242;48.796;9.930;2022-09-09T09:26:24;24.30;99.90
36206;DHT22;22242;48.796;9.930;2022-09-09T09:28:55;23.60;99.90
36206;DHT22;22242;48.796;9.930;2022-09-09T09:31:23;23.50;99.90
36206;DHT22;22242;48.796;9.930;2022-09-09T09:33:53;23.20;99.90
36206;DHT22;22242;48.796;9.930;2022-09-09T09:36:32;23.50;99.90
36206;DHT22;22242;48.796;9.930;2022-09-09T09:39:02;25.10;99.20
36206;DHT22;22242;48.796;9.930;2022-09-09T09:41:34;25.00;97.20
36206;DHT22;22242;48.796;9.930;2022-09-09T09:44:05;26.10;96.70
36206;DHT22;22242;48.796;9.930;2022-09-09T09:46:46;25.20;98.40
36206;DHT22;22242;48.796;9.930;2022-09-09T09:49:13;23.90;99.30
36206;DHT22;22242;48.796;9.930;2022-09-09T09:51:40;23.80;98.90
36206;DHT22;22242;48.796;9.930;2022-09-09T09:54:15;23.50;99.40
36206;DHT22;22242;48.796;9.930;2022-09-09T09:56:49;23.90;99.10
36206;DHT22;22242;48.796;9.930;2022-09-09T09:59:32;24.40;98.30
36206;DHT22;22242;48.796;9.930;2022-09-09T10:02:18;24.20;99.40
36206;DHT22;22242;48.796;9.930;2022-09-09T10:05:01;23.40;99.90
36206;DHT22;22242;48.796;9.930;2022-09-09T10:07:28;22.50;99.90
36206;DHT22;22242;48.796;9.930;2022-09-09T10:09:57;22.20;99.90
36206;DHT22;22242;48.796;9.930;2022-09-09T10:12:34;21.90;99.90
36206;DHT22;22242;48.796;9.930;2022-09-09T10:15:19;21.80;99.90
36206;DHT22;22242;48.796;9.930;2022-09-09T10:17:56;21.50;99.90
36206;DHT22;22242;48.796;9.930;2022-09-09T10:20:34;21.70;99.90
36206;DHT22;22242;48.796;9.930;2022-09-09T10:23:13;21.20;99.90
36206;DHT22;22242;48.796;9.930;2022-09-09T10:25:58;20.80;99.90
36206;DHT22;22242;48.796;9.930;2022-09-09T10:28:45;20.80;99.90
36206;DHT22;22242;48.796;9.930;2022-09-09T10:31:27;20.80;99.90
36206;DHT22;22242;48.796;9.930;2022-09-09T10:34:10;21.20;99.90
36206;DHT22;22242;48.796;9.930;2022-09-09T10:36:46;21.50;99.90
36206;DHT22;22242;48.796;9.930;2022-09-09T10:39:25;22.10;99.90
36206;DHT22;22242;48.796;9.930;2022-09-09T10:42:01;23.10;99.90
36206;DHT22;22242;48.796;9.930;2022-09-09T10:44:45;24.50;99.90
36206;DHT22;22242;48.796;9.930;2022-09-09T10:47:25;25.20;99.90
36206;DHT22;22242;48.796;9.930;2022-09-09T10:50:14;24.70;99.90
36206;DHT22;22242;48.796;9.930;2022-09-09T10:52:50;24.50;99.90
36206;DHT22;22242;48.796;9.930;2022-09-09T10:55:24;25.50;99.90
36206;DHT22;22242;48.796;9.930;2022-09-09T10:57:54;26.50;98.40
36206;DHT22;22242;48.796;9.930;2022-09-09T11:00:24;27.60;96.00
36206;DHT22;22242;48.796;9.930;2022-09-09T11:02:56;27.10;95.50
36206;DHT22;22242;48.796;9.930;2022-09-09T11:05:28;27.50;95.00
36206;DHT22;22242;48.796;9.930;2022-09-09T11:07:59;27.50;93.40
36206;DHT22;22242;48.796;9.930;2022-09-09T11:10:34;27.40;92.80
36206;DHT22;22242;48.796;9.930;2022-09-09T11:13:08;26.70;91.50
36206;DHT22;22242;48.796;9.930;2022-09-09T11:15:41;25.30;93.50
36206;DHT22;22242;48.796;9.930;2022-09-09T11:18:13;24.40;91.80
36206;DHT22;22242;48.796;9.930;2022-09-09T11:20:44;24.00;93.60
36206;DHT22;22242;48.796;9.930;2022-09-09T11:23:13;25.30;92.10
36206;DHT22;22242;48.796;9.930;2022-09-09T11:25:47;25.50;92.20
36206;DHT22;22242;48.796;9.930;2022-09-09T11:28:28;25.70;90.90
36206;DHT22;22242;48.796;9.930;2022-09-09T11:31:13;26.40;90.70
36206;DHT22;22242;48.796;9.930;2022-09-09T11:33:55;26.10;88.40
36206;DHT22;22242;48.796;9.930;2022-09-09T11:39:53;24.50;92.10
36206;DHT22;22242;48.796;9.930;2022-09-09T11:42:24;24.50;93.10
36206;DHT22;22242;48.796;9.930;2022-09-09T11:44:51;24.60;92.10
36206;DHT22;22242;48.796;9.930;2022-09-09T11:47:25;24.70;92.00
36206;DHT22;22242;48.796;9.930;2022-09-09T11:50:10;24.00;92.50
36206;DHT22;22242;48.796;9.930;2022-09-09T11:52:41;23.20;94.30
36206;DHT22;22242;48.796;9.930;2022-09-09T11:55:25;22.60;95.10
36206;DHT22;22242;48.796;9.930;2022-09-09T11:57:57;22.90;95.00
36206;DHT22;22242;48.796;9.930;2022-09-09T12:00:33;23.70;93.00
36206;DHT22;22242;48.796;9.930;2022-09-09T12:03:00;24.10;95.00
36206;DHT22;22242;48.796;9.930;2022-09-09T12:05:39;24.20;93.30
36206;DHT22;22242;48.796;9.930;2022-09-09T12:08:09;24.20;88.40
36206;DHT22;22242;48.796;9.930;2022-09-09T12:10:39;24.50;91.30
36206;DHT22;22242;48.796;9.930;2022-09-09T12:13:16;24.20;93.30
36206;DHT22;22242;48.796;9.930;2022-09-09T12:15:47;23.70;91.30
36206;DHT22;22242;48.796;9.930;2022-09-09T12:18:21;23.50;91.30
36206;DHT22;22242;48.796;9.930;2022-09-09T12:20:57;23.50;91.10
36206;DHT22;22242;48.796;9.930;2022-09-09T12:23:38;24.00;90.20
36206;DHT22;22242;48.796;9.930;2022-09-09T12:26:26;24.20;85.10
36206;DHT22;22242;48.796;9.930;2022-09-09T12:29:08;24.10;91.40
36206;DHT22;22242;48.796;9.930;2022-09-09T12:31:43;23.60;89.00
36206;DHT22;22242;48.796;9.930;2022-09-09T12:34:16;22.70;90.30
36206;DHT22;22242;48.796;9.930;2022-09-09T12:36:49;22.90;92.10
36206;DHT22;22242;48.796;9.930;2022-09-09T12:39:21;22.80;92.30
36206;DHT22;22242;48.796;9.930;2022-09-09T12:41:53;21.90;97.10
36206;DHT22;22242;48.796;9.930;2022-09-09T12:44:23;21.20;99.20
36206;DHT22;22242;48.796;9.930;2022-09-09T12:46:51;20.90;99.90
36206;DHT22;22242;48.796;9.930;2022-09-09T12:49:28;20.80;99.90
36206;DHT22;22242;48.796;9.930;2022-09-09T12:51:58;20.80;99.90
36206;DHT22;22242;48.796;9.930;2022-09-09T12:54:26;20.50;99.90
36206;DHT22;22242;48.796;9.930;2022-09-09T12:56:53;19.80;99.90
36206;DHT22;22242;48.796;9.930;2022-09-09T12:59:24;19.60;99.90
36206;DHT22;22242;48.796;9.930;2022-09-09T13:01:58;19.70;99.90
36206;DHT22;22242;48.796;9.930;2022-09-09T13:04:25;20.30;99.90
36206;DHT22;22242;48.796;9.930;2022-09-09T13:06:52;20.70;99.90
36206;DHT22;22242;48.796;9.930;2022-09-09T13:09:22;20.40;99.90
36206;DHT22;22242;48.796;9.930;2022-09-09T13:11:52;20.50;99.90
36206;DHT22;22242;48.796;9.930;2022-09-09T13:14:28;20.50;99.90
36206;DHT22;22242;48.796;9.930;2022-09-09T13:16:57;20.90;99.90
36206;DHT22;22242;48.796;9.930;2022-09-09T13:19:24;21.10;99.90
36206;DHT22;22242;48.796;9.930;2022-09-09T13:21:53;21.20;99.90
36206;DHT22;22242;48.796;9.930;2022-09-09T13:24:27;21.10;99.90
36206;DHT22;22242;48.796;9.930;2022-09-09T13:26:56;21.30;99.90
36206;DHT22;22242;48.796;9.930;2022-09-09T13:29:23;21.30;99.90
36206;DHT22;22242;48.796;9.930;2022-09-09T13:31:50;21.20;99.90
36206;DHT22;22242;48.796;9.930;2022-09-09T13:34:29;21.10;98.60
36206;DHT22;22242;48.796;9.930;2022-09-09T13:36:59;21.00;98.90
36206;DHT22;22242;48.796;9.930;2022-09-09T13:39:29;21.00;99.10
36206;DHT22;22242;48.796;9.930;2022-09-09T13:41:56;20.90;99.10
36206;DHT22;22242;48.796;9.930;2022-09-09T13:44:25;20.80;99.20
36206;DHT22;22242;48.796;9.930;2022-09-09T13:47:02;21.00;99.40
36206;DHT22;22242;48.796;9.930;2022-09-09T13:49:30;21.00;99.50
36206;DHT22;22242;48.796;9.930;2022-09-09T13:52:08;21.00;99.90
36206;DHT22;22242;48.796;9.930;2022-09-09T13:54:37;21.30;99.30
36206;DHT22;22242;48.796;9.930;2022-09-09T13:57:05;21.00;99.50
36206;DHT22;22242;48.796;9.930;2022-09-09T13:59:32;21.10;98.90
36206;DHT22;22242;48.796;9.930;2022-09-09T14:01:59;21.10;98.10
36206;DHT22;22242;48.796;9.930;2022-09-09T14:04:27;21.10;98.80
36206;DHT22;22242;48.796;9.930;2022-09-09T14:06:54;21.10;98.30
36206;DHT22;22242;48.796;9.930;2022-09-09T14:09:22;21.00;99.90
36206;DHT22;22242;48.796;9.930;2022-09-09T14:11:50;21.00;99.40
36206;DHT22;22242;48.796;9.930;2022-09-09T14:14:17;20.70;98.40
36206;DHT22;22242;48.796;9.930;2022-09-09T14:16:44;20.10;99.90
36206;DHT22;22242;48.796;9.930;2022-09-09T14:19:11;20.00;99.90
36206;DHT22;22242;48.796;9.930;2022-09-09T14:21:37;20.40;99.90
36206;DHT22;22242;48.796;9.930;2022-09-09T14:24:05;20.90;99.90
36206;DHT22;22242;48.796;9.930;2022-09-09T14:26:32;20.80;99.90
36206;DHT22;22242;48.796;9.930;2022-09-09T14:29:00;20.80;99.90
36206;DHT22;22242;48.796;9.930;2022-09-09T14:31:27;20.70;99.90
36206;DHT22;22242;48.796;9.930;2022-09-09T14:33:54;20.70;99.90
36206;DHT22;22242;48.796;9.930;2022-09-09T14:36:21;20.40;99.90
36206;DHT22;22242;48.796;9.930;2022-09-09T14:38:48;20.20;99.90
36206;DHT22;22242;48.796;9.930;2022-09-09T14:41:16;20.30;99.90
36206;DHT22;22242;48.796;9.930;2022-09-09T14:43:43;20.20;99.90
36206;DHT22;22242;48.796;9.930;2022-09-09T14:46:13;20.60;99.90
36206;DHT22;22242;48.796;9.930;2022-09-09T14:48:40;20.80;99.90
36206;DHT22;22242;48.796;9.930;2022-09-09T14:51:09;20.80;99.90
36206;DHT22;22242;48.796;9.930;2022-09-09T14:53:36;21.00;99.90
36206;DHT22;22242;48.796;9.930;2022-09-09T14:56:05;21.10;98.60
36206;DHT22;22242;48.796;9.930;2022-09-09T14:58:32;21.20;99.40
36206;DHT22;22242;48.796;9.930;2022-09-09T15:01:04;21.20;99.40
36206;DHT22;22242;48.796;9.930;2022-09-09T15:03:33;20.70;99.90
36206;DHT22;22242;48.796;9.930;2022-09-09T15:06:05;20.40;99.90
36206;DHT22;22242;48.796;9.930;2022-09-09T15:08:32;20.40;99.90
36206;DHT22;22242;48.796;9.930;2022-09-09T15:10:59;20.20;99.20
36206;DHT22;22242;48.796;9.930;2022-09-09T15:13:27;20.30;99.20
36206;DHT22;22242;48.796;9.930;2022-09-09T15:15:54;20.40;99.30
36206;DHT22;22242;48.796;9.930;2022-09-09T15:18:21;20.30;98.40
36206;DHT22;22242;48.796;9.930;2022-09-09T15:20:49;20.60;98.70
36206;DHT22;22242;48.796;9.930;2022-09-09T15:23:16;20.60;98.50
36206;DHT22;22242;48.796;9.930;2022-09-09T15:25:53;20.60;97.10
36206;DHT22;22242;48.796;9.930;2022-09-09T15:28:21;20.70;97.50
36206;DHT22;22242;48.796;9.930;2022-09-09T15:30:49;20.60;97.90
36206;DHT22;22242;48.796;9.930;2022-09-09T15:33:17;20.60;98.50
36206;DHT22;22242;48.796;9.930;2022-09-09T15:35:44;20.60;97.70
36206;DHT22;22242;48.796;9.930;2022-09-09T15:38:13;20.50;97.60
36206;DHT22;22242;48.796;9.930;2022-09-09T15:40:40;20.20;99.00
36206;DHT22;22242;48.796;9.930;2022-09-09T15:43:08;20.40;99.70
36206;DHT22;22242;48.796;9.930;2022-09-09T15:45:35;20.30;98.10
36206;DHT22;22242;48.796;9.930;2022-09-09T15:48:02;20.10;98.30
36206;DHT22;22242;48.796;9.930;2022-09-09T15:50:30;19.90;97.90
36206;DHT22;22242;48.796;9.930;2022-09-09T15:52:58;19.90;98.40
36206;DHT22;22242;48.796;9.930;2022-09-09T15:55:26;19.90;98.70
36206;DHT22;22242;48.796;9.930;2022-09-09T15:57:53;20.00;98.80
36206;DHT22;22242;48.796;9.930;2022-09-09T16:00:20;20.00;97.80
36206;DHT22;22242;48.796;9.930;2022-09-09T16:02:48;20.10;97.10
36206;DHT22;22242;48.796;9.930;2022-09-09T16:05:15;20.00;97.50